Center Hill, Florida
Current Conditions -  °F | °C
As of 5:53 PM on Wednesday 22 Oct 2014 (Local Time) from KLEE Reporting Station
Clear Clear  
Wind Chill: 79°   Ceiling: Unl
Heat Index: 80°   Visibility: 10mi
Dew Point: 56°   Wind: 8mph
Humidity: 45%   Direction: 50°NE
Pressure: 29.96"   Gusts: NA
Location:  28.65°N, 81.99°W
Report Text: KLEE 222153Z 05007KT 10SM CLR 26/13 A2996 RMK AO2 SLP142 T02610133
Loading
Personal Weather Stations






























Interactive Weather Map
Tropical Storm Tracking
New forecast layout! Learn more

10-Day Weather Forecast

Advertisements
Track Severe Weather on mobile